Little Valley, California
Current Conditions -  °F | °C
As of 9:55 AM on Saturday 25 Oct 2014 (Local Time) from KAAT Reporting Station
Light Rain Light Rain  
Wind Chill: 36°   Ceiling: 4000
Heat Index: 46°   Visibility: 10mi
Dew Point: 40°   Wind: 32mph
Humidity: 79%   Direction: 250°WSW
Pressure: 29.9"   Gusts: 40mph
Location:  40.9954°N, 121.135°W
Report Text: KAAT 251655Z AUTO 25028G35KT 10SM -RA FEW026 OVC040 08/04 A2990 RMK AO2 PK WND 26035/1651 WSHFT 1604 RAB22 SLP109 P0002 T00780044
Loading
Personal Weather Stations






























Interactive Weather Map New forecast layout! Learn more

10-Day Weather Forecast

Advertisements
Track Severe Weather on mobile